createdAt,value
2023-01-21T18:42:19.982Z,-84.00
2023-01-21T18:43:20.964Z,-83.00
2023-01-21T18:44:21.738Z,-83.00
2023-01-21T18:45:22.155Z,-82.00
2023-01-21T18:46:23.054Z,-83.00
2023-01-21T18:47:22.947Z,-83.00
2023-01-21T18:48:23.301Z,-85.00
2023-01-21T18:49:23.873Z,-83.00
2023-01-21T18:50:23.924Z,-83.00
2023-01-21T18:51:24.831Z,-83.00
2023-01-21T18:52:24.778Z,-84.00
2023-01-21T18:53:25.010Z,-82.00
2023-01-21T18:54:25.253Z,-83.00
2023-01-21T18:55:26.212Z,-82.00
2023-01-21T18:56:27.108Z,-84.00
2023-01-21T18:57:28.032Z,-84.00
2023-01-21T18:58:28.233Z,-84.00
2023-01-21T18:59:28.283Z,-84.00
2023-01-21T19:00:29.308Z,-82.00
2023-01-21T19:01:30.352Z,-83.00
2023-01-21T19:02:30.723Z,-83.00
2023-01-21T19:03:30.923Z,-83.00
2023-01-21T19:04:31.603Z,-83.00
2023-01-21T19:05:32.204Z,-84.00
2023-01-21T19:06:33.207Z,-83.00
2023-01-21T19:07:34.832Z,-83.00
2023-01-21T19:08:35.391Z,-83.00
2023-01-21T19:09:34.907Z,-83.00
2023-01-21T19:09:43.951Z,-84.00
2023-01-21T19:10:43.733Z,-83.00
2023-01-21T19:11:44.747Z,-83.00
2023-01-21T19:12:45.250Z,-84.00
2023-01-21T19:13:46.057Z,-83.00
2023-01-21T19:14:46.617Z,-83.00
2023-01-21T19:15:47.162Z,-83.00
2023-01-21T19:16:47.637Z,-84.00
2023-01-21T19:17:47.705Z,-85.00
2023-01-21T19:18:48.388Z,-85.00
2023-01-21T19:19:48.860Z,-84.00
2023-01-21T19:20:49.323Z,-84.00
2023-01-21T19:21:50.019Z,-83.00
2023-01-21T19:22:50.523Z,-84.00
2023-01-21T19:23:50.898Z,-84.00
2023-01-21T19:24:51.385Z,-83.00
2023-01-21T19:25:51.737Z,-85.00
2023-01-21T19:26:52.338Z,-85.00
2023-01-21T19:27:52.757Z,-84.00
2023-01-21T19:28:53.231Z,-82.00
2023-01-21T19:29:53.849Z,-84.00
2023-01-21T19:30:54.901Z,-84.00
2023-01-21T19:31:55.355Z,-85.00
2023-01-21T19:32:56.099Z,-84.00
2023-01-21T19:33:56.351Z,-84.00
2023-01-21T19:34:56.971Z,-83.00
2023-01-21T19:35:57.676Z,-83.00
2023-01-21T19:36:58.150Z,-84.00
2023-01-21T19:37:58.884Z,-83.00
2023-01-21T19:38:59.135Z,-84.00
2023-01-21T19:39:09.036Z,-84.00
2023-01-21T19:40:09.113Z,-85.00
2023-01-21T19:41:09.317Z,-84.00
2023-01-21T19:42:12.661Z,-83.00
2023-01-21T19:43:10.835Z,-84.00
2023-01-21T19:44:11.689Z,-85.00
2023-01-21T19:45:12.456Z,-83.00
2023-01-21T19:46:13.504Z,-84.00
2023-01-21T19:47:14.135Z,-84.00
2023-01-21T19:48:14.318Z,-85.00
2023-01-21T19:49:14.386Z,-85.00
2023-01-21T19:50:15.848Z,-85.00
2023-01-21T19:51:15.603Z,-85.00
2023-01-21T19:52:15.732Z,-85.00
2023-01-21T19:53:16.613Z,-85.00
2023-01-21T19:54:17.264Z,-85.00
2023-01-21T19:55:17.549Z,-85.00
2023-01-21T19:56:18.222Z,-84.00
2023-01-21T19:57:18.731Z,-85.00
2023-01-21T19:58:19.891Z,-85.00
2023-01-21T19:59:20.170Z,-84.00
2023-01-21T20:00:20.726Z,-85.00
2023-01-21T20:01:38.521Z,-84.00
2023-01-21T20:02:23.211Z,-86.00
2023-01-21T20:03:21.739Z,-85.00
2023-01-21T20:04:22.241Z,-86.00
2023-01-21T20:05:34.984Z,-85.00
2023-01-21T20:06:42.008Z,-85.00
2023-01-21T20:07:35.381Z,-84.00
2023-01-21T20:08:37.971Z,-85.00
2023-01-21T20:09:35.796Z,-84.00
2023-01-21T20:10:36.757Z,-84.00
2023-01-21T20:11:37.746Z,-85.00
2023-01-21T20:12:38.325Z,-84.00
2023-01-21T20:13:39.344Z,-84.00
2023-01-21T20:14:41.728Z,-84.00
2023-01-21T20:15:39.616Z,-84.00
2023-01-21T20:16:40.496Z,-84.00
2023-01-21T20:17:41.276Z,-84.00
2023-01-21T20:18:41.775Z,-83.00
2023-01-21T20:19:42.001Z,-84.00
2023-01-21T20:20:42.279Z,-84.00
2023-01-21T20:21:59.890Z,-85.00
2023-01-21T20:22:43.796Z,-86.00
2023-01-21T20:23:44.667Z,-83.00
2023-01-21T20:24:44.964Z,-85.00
2023-01-21T20:25:45.044Z,-84.00
2023-01-21T20:26:46.039Z,-85.00
2023-01-21T20:27:46.844Z,-84.00
2023-01-21T20:28:47.884Z,-86.00
2023-01-21T20:30:02.475Z,-86.00
2023-01-21T20:30:48.784Z,-85.00
2023-01-21T20:31:52.519Z,-87.00
2023-01-21T20:32:49.661Z,-85.00
2023-01-21T20:33:50.103Z,-83.00
2023-01-21T20:34:13.864Z,-86.00
2023-01-21T20:35:12.115Z,-85.00
2023-01-21T20:36:13.026Z,-85.00
2023-01-21T20:37:13.264Z,-84.00
2023-01-21T20:38:13.530Z,-84.00
2023-01-21T20:39:14.339Z,-84.00
2023-01-21T20:40:14.493Z,-83.00
2023-01-21T20:41:14.861Z,-82.00
2023-01-21T20:42:15.424Z,-84.00
2023-01-21T20:43:16.877Z,-85.00
2023-01-21T20:44:15.551Z,-84.00
2023-01-21T20:45:16.167Z,-83.00
2023-01-21T20:46:16.233Z,-83.00
2023-01-21T20:47:23.052Z,-85.00
2023-01-21T20:48:17.247Z,-85.00
2023-01-21T20:49:17.987Z,-85.00
2023-01-21T20:50:18.727Z,-85.00
2023-01-21T20:51:19.612Z,-84.00
2023-01-21T20:52:20.184Z,-85.00
2023-01-21T20:53:21.110Z,-83.00
2023-01-21T20:54:21.842Z,-84.00
2023-01-21T20:55:25.008Z,-84.00
2023-01-21T20:56:25.795Z,-85.00
2023-01-21T20:57:23.674Z,-83.00
2023-01-21T20:58:24.253Z,-84.00
2023-01-21T20:58:36.149Z,-84.00
2023-01-21T20:59:36.597Z,-84.00
2023-01-21T21:00:39.796Z,-86.00
2023-01-21T21:01:37.645Z,-84.00
2023-01-21T21:02:38.686Z,-84.00
2023-01-21T21:03:38.912Z,-84.00
2023-01-21T21:04:39.850Z,-84.00
2023-01-21T21:05:40.271Z,-85.00
2023-01-21T21:06:40.627Z,-84.00
2023-01-21T21:07:41.582Z,-85.00
2023-01-21T21:08:41.719Z,-84.00
2023-01-21T21:09:41.892Z,-85.00
2023-01-21T21:10:42.237Z,-84.00
2023-01-21T21:11:42.953Z,-85.00
2023-01-21T21:12:50.942Z,-84.00
2023-01-21T21:13:44.008Z,-83.00
2023-01-21T21:14:44.345Z,-84.00
2023-01-21T21:15:46.740Z,-85.00
2023-01-21T21:16:45.359Z,-85.00
2023-01-21T21:17:45.326Z,-84.00
2023-01-21T21:18:46.352Z,-85.00
2023-01-21T21:19:46.567Z,-85.00
2023-01-21T21:20:46.838Z,-85.00
2023-01-21T21:21:48.427Z,-84.00
2023-01-21T21:22:48.067Z,-84.00
2023-01-21T21:23:48.751Z,-83.00
2023-01-21T21:24:49.578Z,-83.00
2023-01-21T21:25:50.652Z,-85.00
2023-01-21T21:26:02.307Z,-84.00
2023-01-21T21:27:03.037Z,-84.00
2023-01-21T21:28:04.041Z,-84.00
2023-01-21T21:29:04.234Z,-84.00
2023-01-21T21:30:05.075Z,-86.00
2023-01-21T21:31:05.472Z,-85.00
2023-01-21T21:32:06.148Z,-84.00
2023-01-21T21:33:06.695Z,-85.00
2023-01-21T21:34:07.172Z,-85.00
2023-01-21T21:35:07.646Z,-84.00
2023-01-21T21:36:08.534Z,-85.00
2023-01-21T21:37:09.396Z,-85.00
2023-01-21T21:38:10.232Z,-85.00
2023-01-21T21:39:10.865Z,-85.00
2023-01-21T21:40:11.721Z,-84.00
2023-01-21T21:41:12.589Z,-86.00
2023-01-21T21:42:16.176Z,-85.00
2023-01-21T21:43:13.693Z,-86.00
2023-01-21T21:44:16.842Z,-84.00
2023-01-21T21:45:15.604Z,-85.00
2023-01-21T21:46:16.233Z,-86.00
2023-01-21T21:47:16.756Z,-85.00
2023-01-21T21:48:17.760Z,-83.00
2023-01-21T21:49:18.369Z,-85.00
2023-01-21T21:50:18.899Z,-85.00
2023-01-21T21:51:19.797Z,-84.00
2023-01-21T21:52:23.427Z,-85.00
2023-01-21T21:53:30.546Z,-85.00
2023-01-21T21:54:31.419Z,-86.00
2023-01-21T21:55:31.289Z,-84.00
2023-01-21T21:56:32.049Z,-83.00
2023-01-21T21:57:32.867Z,-84.00
2023-01-21T21:58:33.159Z,-84.00
2023-01-21T21:59:33.813Z,-85.00
2023-01-21T22:00:34.759Z,-85.00
2023-01-21T22:01:36.367Z,-85.00
2023-01-21T22:02:36.211Z,-84.00
2023-01-21T22:03:36.584Z,-83.00
2023-01-21T22:04:37.425Z,-86.00
2023-01-21T22:05:37.518Z,-86.00
2023-01-21T22:06:38.234Z,-85.00
2023-01-21T22:07:38.494Z,-86.00
2023-01-21T22:08:38.460Z,-84.00
2023-01-21T22:09:39.410Z,-85.00
2023-01-21T22:10:39.560Z,-86.00
2023-01-21T22:11:40.195Z,-85.00
2023-01-21T22:12:40.280Z,-83.00
2023-01-21T22:13:40.460Z,-84.00
2023-01-21T22:14:40.984Z,-83.00
2023-01-21T22:15:41.856Z,-85.00
2023-01-21T22:16:44.773Z,-85.00
2023-01-21T22:17:42.794Z,-85.00
2023-01-21T22:18:43.057Z,-85.00
2023-01-21T22:19:43.305Z,-85.00
2023-01-21T22:20:46.957Z,-85.00
2023-01-21T22:21:44.335Z,-86.00
2023-01-21T22:22:45.153Z,-84.00
2023-01-21T22:22:57.862Z,-84.00
2023-01-21T22:23:58.774Z,-85.00
2023-01-21T22:24:59.526Z,-85.00
2023-01-21T22:25:59.618Z,-84.00
2023-01-21T22:27:00.371Z,-88.00
2023-01-21T22:28:00.933Z,-85.00
2023-01-21T22:29:01.373Z,-84.00
2023-01-21T22:30:02.025Z,-84.00
2023-01-21T22:31:02.710Z,-86.00
2023-01-21T22:32:02.820Z,-86.00
2023-01-21T22:33:03.496Z,-85.00
2023-01-21T22:34:04.383Z,-85.00
2023-01-21T22:35:05.999Z,-85.00
2023-01-21T22:36:05.853Z,-85.00
2023-01-21T22:37:06.723Z,-84.00
2023-01-21T22:38:07.153Z,-85.00
2023-01-21T22:39:07.485Z,-85.00
2023-01-21T22:40:07.952Z,-84.00
2023-01-21T22:41:08.369Z,-85.00
2023-01-21T22:42:08.832Z,-83.00
2023-01-21T22:43:09.537Z,-84.00
2023-01-21T22:44:10.284Z,-84.00
2023-01-21T22:45:11.114Z,-86.00
2023-01-21T22:46:11.731Z,-85.00
2023-01-21T22:47:12.135Z,-84.00
2023-01-21T22:47:28.883Z,-84.00
2023-01-21T22:48:29.013Z,-83.00
2023-01-21T22:49:29.341Z,-84.00
2023-01-21T22:50:32.541Z,-85.00
2023-01-21T22:51:31.018Z,-85.00
2023-01-21T22:52:31.523Z,-84.00
2023-01-21T22:53:32.150Z,-85.00
2023-01-21T22:54:32.535Z,-86.00
2023-01-21T22:55:32.924Z,-85.00
2023-01-21T22:56:51.180Z,-84.00
2023-01-21T22:57:33.343Z,-85.00
2023-01-21T22:58:33.813Z,-83.00
2023-01-21T22:59:36.767Z,-84.00
2023-01-21T23:00:35.258Z,-85.00
2023-01-21T23:01:35.919Z,-84.00
2023-01-21T23:02:36.318Z,-85.00
2023-01-21T23:03:36.871Z,-85.00
2023-01-21T23:04:38.519Z,-85.00
2023-01-21T23:05:38.172Z,-85.00
2023-01-21T23:06:38.839Z,-85.00
2023-01-21T23:07:39.377Z,-85.00
2023-01-21T23:08:39.819Z,-85.00
2023-01-21T23:09:40.227Z,-85.00
2023-01-21T23:10:40.738Z,-85.00
2023-01-21T23:11:41.177Z,-85.00
2023-01-21T23:12:41.579Z,-83.00
2023-01-21T23:13:42.051Z,-86.00
2023-01-21T23:14:42.492Z,-86.00
2023-01-21T23:15:42.993Z,-85.00
2023-01-21T23:16:44.396Z,-85.00
2023-01-21T23:17:44.307Z,-84.00
2023-01-21T23:18:03.904Z,-83.00
2023-01-21T23:19:03.086Z,-84.00
2023-01-21T23:19:56.463Z,-85.00
2023-01-21T23:20:58.776Z,-83.00
2023-01-21T23:21:56.586Z,-85.00
2023-01-21T23:22:57.383Z,-85.00
2023-01-21T23:23:58.399Z,-86.00
2023-01-21T23:25:06.483Z,-85.00
2023-01-21T23:25:59.761Z,-86.00
2023-01-21T23:27:00.522Z,-88.00
2023-01-21T23:28:01.243Z,-86.00
2023-01-21T23:29:01.959Z,-87.00
2023-01-21T23:30:02.725Z,-87.00
2023-01-21T23:31:04.656Z,-87.00
2023-01-21T23:32:03.784Z,-90.00
2023-01-21T23:33:04.252Z,-87.00
2023-01-21T23:34:04.585Z,-86.00
2023-01-21T23:35:05.682Z,-87.00
2023-01-21T23:36:06.276Z,-88.00
2023-01-21T23:37:07.103Z,-88.00
2023-01-21T23:38:07.678Z,-88.00
2023-01-21T23:39:10.465Z,-88.00
2023-01-21T23:40:08.799Z,-87.00
2023-01-21T23:41:09.303Z,-87.00
2023-01-21T23:42:12.594Z,-87.00
2023-01-21T23:43:10.071Z,-85.00
2023-01-21T23:44:10.900Z,-87.00
2023-01-21T23:45:10.985Z,-88.00
2023-01-21T23:46:11.593Z,-87.00
2023-01-21T23:47:12.022Z,-86.00
2023-01-21T23:48:12.387Z,-88.00
2023-01-21T23:48:24.614Z,-87.00
2023-01-21T23:49:26.905Z,-88.00
2023-01-21T23:50:25.183Z,-87.00
2023-01-21T23:51:25.712Z,-87.00
2023-01-21T23:52:26.178Z,-87.00
2023-01-21T23:53:26.764Z,-87.00
2023-01-21T23:54:27.087Z,-87.00
2023-01-21T23:55:27.980Z,-88.00
2023-01-21T23:56:28.378Z,-87.00
2023-01-21T23:57:29.138Z,-86.00
2023-01-21T23:58:29.813Z,-88.00
2023-01-21T23:59:32.371Z,-90.00
